Time;durP1;ratioP1;P1;durP2;ratioP2;P2;SDS_P1;SDS_P2;PMS_P1;PMS_P2;Temp;Humidity;BMP_temperature;BMP_pressure;BME280_temperature;BME280_humidity;BME280_pressure;Samples;Min_cycle;Max_cycle;Signal;HPM_P1;HPM_P2
2023/12/02 00:01:11;;;;;;;29.85;23.48;;;;;;;0.06;79.88;96989.56;4948782;28;20038;-75
2023/12/02 00:03:36;;;;;;;31.05;23.33;;;;;;;0.06;79.81;96976.34;4965501;28;20026;-75
2023/12/02 00:06:03;;;;;;;30.90;23.75;;;;;;;0.07;79.28;96977.97;4954208;28;20031;-74
2023/12/02 00:08:28;;;;;;;29.90;23.13;;;;;;;-0.04;79.59;96974.94;4970938;28;20475;-75
2023/12/02 00:10:53;;;;;;;31.40;23.45;;;;;;;0.00;79.55;96981.44;4970786;28;20042;-74
2023/12/02 00:13:19;;;;;;;30.95;24.48;;;;;;;-0.04;80.19;96974.94;4970550;28;20030;-73
2023/12/02 00:15:44;;;;;;;33.67;24.02;;;;;;;-0.12;79.91;96963.78;4944516;29;20054;-74
2023/12/02 00:18:09;;;;;;;31.67;24.40;;;;;;;-0.02;79.86;96983.47;4969751;28;20030;-74
2023/12/02 00:20:35;;;;;;;32.00;24.55;;;;;;;0.03;79.53;96982.03;4967556;28;20038;-73
2023/12/02 00:23:00;;;;;;;31.42;23.63;;;;;;;0.00;79.98;96999.94;4954659;28;20501;-73
2023/12/02 00:25:26;;;;;;;31.42;24.08;;;;;;;-0.03;79.95;96984.50;4949262;28;20030;-73
2023/12/02 00:27:51;;;;;;;30.85;25.27;;;;;;;-0.03;80.27;96987.16;4971003;28;20574;-74
2023/12/02 00:30:16;;;;;;;28.63;22.83;;;;;;;0.04;80.15;97002.19;4962761;28;20050;-74
2023/12/02 00:32:42;;;;;;;31.23;23.50;;;;;;;-0.04;79.58;97011.97;4972178;28;20031;-73
2023/12/02 00:35:07;;;;;;;29.60;23.48;;;;;;;-0.05;79.58;96991.81;4954988;28;20089;-74
2023/12/02 00:37:33;;;;;;;28.98;22.77;;;;;;;0.02;79.74;96996.28;4973628;28;20069;-73
2023/12/02 00:39:58;;;;;;;28.90;23.17;;;;;;;-0.05;80.62;97012.97;4981986;28;20057;-73
2023/12/02 00:42:23;;;;;;;30.60;23.17;;;;;;;0.02;79.64;97006.88;4959137;28;20027;-74
2023/12/02 00:44:49;;;;;;;29.73;23.33;;;;;;;-0.09;80.29;96990.63;4975184;28;20431;-74
2023/12/02 00:47:14;;;;;;;28.35;22.65;;;;;;;-0.12;80.16;96980.44;4968214;28;20085;-74
2023/12/02 00:49:40;;;;;;;29.20;22.88;;;;;;;-0.21;80.61;96971.09;4958976;28;20486;-74
2023/12/02 00:52:05;;;;;;;29.45;23.13;;;;;;;-0.25;80.02;96958.50;4959054;28;20030;-74
2023/12/02 00:54:33;;;;;;;32.20;23.38;;;;;;;-0.16;80.40;96967.84;4974901;28;20081;-74
2023/12/02 00:56:59;;;;;;;31.50;23.67;;;;;;;-0.21;79.97;96944.66;4974130;28;20030;-74
2023/12/02 00:59:25;;;;;;;29.17;22.17;;;;;;;-0.28;80.47;96935.13;4966241;28;20042;-73
2023/12/02 01:01:50;;;;;;;29.60;23.13;;;;;;;-0.17;80.85;96961.75;4940121;28;20023;-74
2023/12/02 01:04:15;;;;;;;31.13;23.52;;;;;;;-0.31;80.55;96954.03;4981256;28;20047;-74
2023/12/02 01:06:41;;;;;;;29.90;23.35;;;;;;;-0.29;80.63;96958.13;4958400;28;20034;-74
2023/12/02 01:09:06;;;;;;;27.88;22.48;;;;;;;-0.20;80.42;96961.34;4977110;28;20462;-74
2023/12/02 01:11:31;;;;;;;31.95;23.75;;;;;;;-0.21;80.36;96952.59;4970855;28;20023;-74
2023/12/02 01:13:58;;;;;;;29.38;21.77;;;;;;;-0.28;80.27;96927.97;4972216;28;20047;-74
2023/12/02 01:16:23;;;;;;;32.67;24.73;;;;;;;-0.26;80.09;96949.78;4974336;28;20019;-74
2023/12/02 01:18:48;;;;;;;32.00;23.33;;;;;;;-0.37;80.01;96939.81;4975721;28;20053;-74
2023/12/02 01:21:14;;;;;;;31.00;22.63;;;;;;;-0.35;79.91;96952.84;4974628;28;20029;-74
2023/12/02 01:23:39;;;;;;;30.10;23.75;;;;;;;-0.32;80.39;96966.44;4959944;28;20065;-74
2023/12/02 01:26:05;;;;;;;32.13;24.02;;;;;;;-0.40;80.12;96965.88;4957205;28;20022;-74
2023/12/02 01:28:30;;;;;;;31.63;24.02;;;;;;;-0.33;79.84;96988.66;4974316;28;20038;-74
2023/12/02 01:30:55;;;;;;;30.98;24.15;;;;;;;-0.38;80.29;96985.78;4974014;28;20069;-74
2023/12/02 01:33:21;;;;;;;33.47;24.85;;;;;;;-0.34;80.26;96975.59;4978588;28;20101;-73
2023/12/02 01:35:48;;;;;;;31.58;24.10;;;;;;;-0.35;80.19;96989.88;4976250;28;20031;-74
2023/12/02 01:38:13;;;;;;;32.40;22.63;;;;;;;-0.36;80.22;96994.34;4974199;28;20038;-73
2023/12/02 01:40:39;;;;;;;33.17;23.98;;;;;;;-0.37;79.65;97013.84;4977965;28;20398;-74
2023/12/02 01:43:04;;;;;;;32.25;24.30;;;;;;;-0.42;80.19;97021.56;4974016;28;20035;-73
2023/12/02 01:45:30;;;;;;;31.27;24.20;;;;;;;-0.42;80.57;97016.28;4973719;28;20483;-73
2023/12/02 01:47:56;;;;;;;31.70;23.13;;;;;;;-0.37;79.32;97029.72;4930546;28;20051;-73
2023/12/02 01:50:22;;;;;;;35.20;24.70;;;;;;;-0.38;80.45;97035.22;4947473;28;20049;-73
2023/12/02 01:52:47;;;;;;;29.42;22.27;;;;;;;-0.55;80.58;97023.41;4953279;28;20122;-73
2023/12/02 01:55:13;;;;;;;30.88;23.58;;;;;;;-0.51;80.13;97037.88;4964745;28;20045;-74
2023/12/02 01:57:38;;;;;;;32.92;23.50;;;;;;;-0.61;80.37;97011.84;4951532;29;20042;-74
2023/12/02 02:00:04;;;;;;;36.28;19.73;;;;;;;-0.65;80.40;97031.75;4940532;28;20026;-73
2023/12/02 02:02:37;;;;;;;30.67;23.35;;;;;;;-0.54;79.96;97028.53;4973739;28;20058;-73
2023/12/02 02:05:02;;;;;;;34.20;24.67;;;;;;;-0.59;80.52;97025.66;4956468;28;20495;-73
2023/12/02 02:07:28;;;;;;;31.33;23.35;;;;;;;-0.67;79.97;97012.63;4947990;29;20403;-73
2023/12/02 02:09:54;;;;;;;31.63;23.58;;;;;;;-0.59;80.41;97015.09;4952920;28;20030;-73
2023/12/02 02:12:19;;;;;;;29.35;22.67;;;;;;;-0.57;80.01;97021.00;4973564;28;20037;-74
2023/12/02 02:14:45;;;;;;;30.35;23.05;;;;;;;-0.60;79.65;97018.75;4957541;28;20605;-73
2023/12/02 02:17:10;;;;;;;31.48;23.27;;;;;;;-0.60;79.72;97018.75;4957210;28;20037;-73
2023/12/02 02:19:36;;;;;;;30.77;18.73;;;;;;;-0.76;80.16;97012.03;4969978;28;20035;-74
2023/12/02 02:22:01;;;;;;;29.17;22.85;;;;;;;-0.64;80.13;97006.13;4971990;28;20029;-74
2023/12/02 02:24:27;;;;;;;31.70;23.50;;;;;;;-0.57;79.72;97018.34;4974658;28;20043;-74
2023/12/02 02:26:52;;;;;;;31.83;23.65;;;;;;;-0.68;80.24;97008.38;4973554;28;20050;-74
2023/12/02 02:29:17;;;;;;;33.10;24.38;;;;;;;-0.78;80.01;96989.47;4925480;28;20392;-74
2023/12/02 02:31:43;;;;;;;29.77;22.45;;;;;;;-0.58;79.72;97006.13;4970103;28;20061;-73
2023/12/02 02:34:08;;;;;;;30.85;23.48;;;;;;;-0.64;79.59;97014.88;4972665;28;20043;-73
2023/12/02 02:36:34;;;;;;;29.45;23.08;;;;;;;-0.68;79.78;97016.31;4970463;28;20016;-73
2023/12/02 02:38:59;;;;;;;29.75;22.55;;;;;;;-0.74;80.02;97011.81;4971841;28;20051;-73
2023/12/02 02:41:24;;;;;;;30.02;22.67;;;;;;;-0.62;79.79;97027.88;4976741;28;20109;-73
2023/12/02 02:43:50;;;;;;;30.98;23.55;;;;;;;-0.69;79.71;97004.09;4955023;28;20050;-74
2023/12/02 02:46:15;;;;;;;31.65;23.02;;;;;;;-0.89;80.82;96998.00;4972749;28;20022;-75
2023/12/02 02:48:41;;;;;;;30.52;23.55;;;;;;;-0.72;80.51;97007.13;4954024;28;20053;-74
2023/12/02 02:51:06;;;;;;;30.08;22.75;;;;;;;-0.74;80.27;97017.94;4934505;28;20039;-73
2023/12/02 02:53:32;;;;;;;30.25;23.20;;;;;;;-0.79;79.69;97012.44;4956865;28;20058;-73
2023/12/02 02:55:57;;;;;;;29.45;21.73;;;;;;;-0.81;79.60;97029.50;4972388;28;20027;-74
2023/12/02 02:58:23;;;;;;;30.05;22.92;;;;;;;-0.85;80.39;97036.22;4951380;28;20406;-74
2023/12/02 03:00:48;;;;;;;30.60;23.13;;;;;;;-0.96;80.27;97013.03;4972354;28;20055;-73
2023/12/02 03:03:14;;;;;;;30.73;22.85;;;;;;;-0.92;80.31;97012.44;4934241;28;20097;-74
2023/12/02 03:05:39;;;;;;;31.20;23.83;;;;;;;-0.98;80.68;97004.50;4951174;29;20027;-73
2023/12/02 03:08:04;;;;;;;31.73;23.55;;;;;;;-0.88;80.14;97026.03;4965314;28;20043;-72
2023/12/02 03:10:30;;;;;;;30.90;23.63;;;;;;;-0.92;79.91;97019.53;4972637;28;20037;-73
2023/12/02 03:12:55;;;;;;;33.00;23.95;;;;;;;-0.95;79.74;97020.75;4955781;28;20050;-73
2023/12/02 03:15:21;;;;;;;32.75;23.50;;;;;;;-0.98;80.41;97017.72;4972375;28;20097;-72
2023/12/02 03:17:46;;;;;;;31.50;24.20;;;;;;;-0.88;80.38;97023.38;4972398;28;20039;-73
2023/12/02 03:20:11;;;;;;;32.88;23.77;;;;;;;-0.93;80.50;97023.19;4958030;28;20031;-73
2023/12/02 03:22:37;;;;;;;30.75;19.48;;;;;;;-1.02;80.95;97017.28;4966188;28;20039;-73
2023/12/02 03:25:02;;;;;;;32.00;23.65;;;;;;;-1.02;80.41;97008.53;4955532;28;20046;-73
2023/12/02 03:27:28;;;;;;;30.63;23.38;;;;;;;-0.95;79.96;97010.19;4971813;28;20117;-74
2023/12/02 03:29:53;;;;;;;31.00;23.02;;;;;;;-1.04;79.77;97000.00;4970253;28;20503;-73
2023/12/02 03:32:19;;;;;;;30.05;23.10;;;;;;;-0.91;79.84;97016.69;4972235;28;20191;-73
2023/12/02 03:34:44;;;;;;;29.95;23.38;;;;;;;-0.88;79.96;97020.75;4970596;28;20120;-73
2023/12/02 03:37:10;;;;;;;31.73;18.25;;;;;;;-1.12;80.13;97016.06;4966692;28;20030;-75
2023/12/02 03:39:35;;;;;;;31.27;23.23;;;;;;;-0.98;80.56;97025.63;4957673;28;21339;-74
2023/12/02 03:42:01;;;;;;;32.65;24.23;;;;;;;-0.97;80.18;97027.25;4973372;28;20062;-75
2023/12/02 03:44:26;;;;;;;31.00;23.52;;;;;;;-1.01;80.01;97016.28;4953856;28;20109;-75
2023/12/02 03:46:51;;;;;;;31.02;23.35;;;;;;;-0.93;79.86;97028.47;4929106;28;20602;-74
2023/12/02 03:49:17;;;;;;;31.13;22.63;;;;;;;-0.99;79.70;97030.09;4969959;28;20046;-73
2023/12/02 03:51:42;;;;;;;30.45;22.50;;;;;;;-0.91;80.18;97037.03;4951160;28;20030;-73
2023/12/02 03:54:07;;;;;;;27.98;21.63;;;;;;;-1.02;80.03;97032.31;4953984;28;20019;-73
2023/12/02 03:56:33;;;;;;;29.42;22.75;;;;;;;-0.91;79.70;97037.03;4965410;28;20045;-74
2023/12/02 03:58:59;;;;;;;26.85;21.02;;;;;;;-0.93;79.78;97023.19;4971586;28;20051;-73
2023/12/02 04:01:25;;;;;;;31.58;18.17;;;;;;;-1.05;79.59;97045.94;4969946;28;20069;-73
2023/12/02 04:03:50;;;;;;;26.83;21.42;;;;;;;-0.87;80.25;97054.09;4970186;28;20042;-72
2023/12/02 04:06:15;;;;;;;26.83;20.88;;;;;;;-0.96;79.54;97052.66;4955220;28;20033;-73
2023/12/02 04:08:41;;;;;;;27.42;20.50;;;;;;;-0.90;79.43;97065.06;4954162;28;20553;-73
2023/12/02 04:11:08;;;;;;;27.25;20.83;;;;;;;-0.81;78.94;97069.13;4938018;28;20039;-73
2023/12/02 04:13:34;;;;;;;29.85;21.98;;;;;;;-0.81;79.93;97069.13;4938117;28;20033;-71
2023/12/02 04:16:00;;;;;;;27.95;20.58;;;;;;;-0.99;79.79;97045.13;4947300;28;20051;-72
2023/12/02 04:18:25;;;;;;;29.70;22.08;;;;;;;-0.91;79.69;97047.59;4969907;28;20034;-73
2023/12/02 04:20:50;;;;;;;30.40;17.02;;;;;;;-0.88;79.98;97057.75;4929639;28;20488;-73
2023/12/02 04:23:16;;;;;;;30.45;22.25;;;;;;;-0.83;79.75;97042.94;4970032;28;20054;-73
2023/12/02 04:25:42;;;;;;;29.00;22.73;;;;;;;-0.77;79.44;97034.19;4968305;28;20049;-74
2023/12/02 04:28:07;;;;;;;29.55;22.10;;;;;;;-0.81;79.46;97042.72;4954277;28;20039;-73
2023/12/02 04:30:34;;;;;;;28.13;21.05;;;;;;;-0.79;78.79;97035.41;4948718;28;20434;-73
2023/12/02 04:32:59;;;;;;;26.80;21.23;;;;;;;-0.74;79.75;97032.97;4970240;28;20026;-74
2023/12/02 04:35:25;;;;;;;30.10;23.15;;;;;;;-0.56;78.73;97062.25;4951828;28;20035;-74
2023/12/02 04:37:51;;;;;;;26.48;20.88;;;;;;;-0.73;79.58;97058.38;4976252;28;20031;-74
2023/12/02 04:40:17;;;;;;;28.38;22.17;;;;;;;-0.74;78.95;97054.09;4974744;28;20030;-74
2023/12/02 04:42:42;;;;;;;30.02;22.85;;;;;;;-0.71;79.26;97064.28;4976871;28;20042;-74
2023/12/02 04:45:08;;;;;;;30.42;23.08;;;;;;;-0.63;79.52;97068.56;4967065;28;20094;-73
2023/12/02 04:47:36;;;;;;;29.13;22.30;;;;;;;-0.65;79.57;97055.53;4961600;28;20041;-73
2023/12/02 04:50:03;;;;;;;28.52;16.77;;;;;;;-0.88;79.08;97070.94;4932511;28;20046;-75
2023/12/02 04:52:29;;;;;;;30.40;23.10;;;;;;;-0.83;79.87;97057.97;4938469;28;20054;-74
2023/12/02 04:54:54;;;;;;;30.27;22.75;;;;;;;-0.75;79.89;97065.72;4945988;28;20031;-75
2023/12/02 04:57:20;;;;;;;29.77;22.20;;;;;;;-0.82;79.54;97068.31;4969525;28;20042;-74
2023/12/02 04:59:45;;;;;;;28.55;21.20;;;;;;;-0.88;78.68;97057.75;4951901;28;20043;-75
2023/12/02 05:02:10;;;;;;;31.05;22.92;;;;;;;-0.81;78.70;97064.69;4937796;28;20027;-74
2023/12/02 05:04:36;;;;;;;28.17;22.02;;;;;;;-0.99;78.76;97050.41;4966278;28;20035;-74
2023/12/02 05:07:01;;;;;;;30.05;22.65;;;;;;;-1.01;78.87;97070.94;4969743;28;20550;-73
2023/12/02 05:09:26;;;;;;;30.63;17.00;;;;;;;-1.16;78.60;97041.22;4966481;28;20043;-72
2023/12/02 05:11:52;;;;;;;28.20;21.52;;;;;;;-0.98;79.20;97065.25;4970522;28;20030;-72
2023/12/02 05:14:17;;;;;;;29.70;23.02;;;;;;;-0.99;79.20;97060.97;4971047;28;20613;-73
2023/12/02 05:16:43;;;;;;;30.45;22.98;;;;;;;-0.98;78.69;97078.47;4969836;28;20035;-73
2023/12/02 05:19:08;;;;;;;32.28;17.42;;;;;;;-1.11;79.29;97078.41;4937652;28;20494;-73
2023/12/02 05:21:35;;;;;;;28.45;22.48;;;;;;;-0.93;79.37;97097.16;4970279;28;20027;-73
2023/12/02 05:24:01;;;;;;;29.13;21.10;;;;;;;-0.88;78.51;97094.72;4970954;28;20117;-73
2023/12/02 05:26:26;;;;;;;30.55;22.42;;;;;;;-0.87;78.30;97099.84;4973737;28;20086;-73
2023/12/02 05:28:51;;;;;;;31.02;21.98;;;;;;;-1.04;78.00;97097.75;4925437;28;20027;-73
2023/12/02 05:31:19;;;;;;;27.13;21.00;;;;;;;-1.18;79.18;97094.25;4973428;28;20445;-73
2023/12/02 05:33:44;;;;;;;28.38;21.13;;;;;;;-1.06;78.80;97115.63;4949850;28;20126;-71
2023/12/02 05:36:10;;;;;;;24.95;19.42;;;;;;;-1.05;78.18;97114.63;4959595;28;20121;-72
2023/12/02 05:38:36;;;;;;;28.77;16.15;;;;;;;-1.27;78.96;97123.66;4936777;28;20045;-72
2023/12/02 05:41:03;;;;;;;29.83;21.95;;;;;;;-1.05;79.18;97141.03;4977257;28;20022;-73
2023/12/02 05:43:29;;;;;;;29.80;21.67;;;;;;;-1.04;78.55;97142.66;4967481;28;20045;-72
2023/12/02 05:45:54;;;;;;;28.60;21.98;;;;;;;-1.04;78.96;97132.09;4974538;28;20381;-74
2023/12/02 05:48:20;;;;;;;26.90;21.00;;;;;;;-1.02;77.86;97141.44;4977774;28;20513;-75
2023/12/02 05:50:45;;;;;;;30.73;18.42;;;;;;;-1.05;78.31;97162.16;4956978;28;20105;-74
2023/12/02 05:53:11;;;;;;;31.05;18.25;;;;;;;-1.12;78.74;97171.91;4953316;28;20505;-74
2023/12/02 05:55:36;;;;;;;27.73;20.92;;;;;;;-1.06;78.81;97152.59;4972991;28;20027;-74
2023/12/02 05:58:02;;;;;;;30.98;17.08;;;;;;;-1.28;79.11;97162.44;4943460;28;20573;-75
2023/12/02 06:00:27;;;;;;;31.52;19.42;;;;;;;-1.12;78.85;97162.13;4975186;28;20452;-75
2023/12/02 06:02:53;;;;;;;33.03;25.13;;;;;;;-1.07;79.23;97138.56;4957659;28;20462;-74
2023/12/02 06:05:18;;;;;;;35.28;25.33;;;;;;;-0.87;78.79;97171.19;4975393;28;20030;-74
2023/12/02 06:07:43;;;;;;;31.08;22.80;;;;;;;-1.03;78.94;97150.41;4973327;28;20129;-74
2023/12/02 06:10:09;;;;;;;29.85;22.70;;;;;;;-0.86;78.77;97161.41;4957303;28;20041;-73
2023/12/02 06:12:34;;;;;;;30.17;22.10;;;;;;;-1.02;78.81;97146.72;4974567;28;20118;-74
2023/12/02 06:14:59;;;;;;;29.52;22.45;;;;;;;-0.99;79.01;97150.81;4954191;28;20035;-74
2023/12/02 06:17:25;;;;;;;31.10;20.23;;;;;;;-1.02;78.67;97145.91;4971761;28;20034;-75
2023/12/02 06:19:50;;;;;;;30.55;22.58;;;;;;;-1.07;78.51;97148.31;4967165;28;20101;-74
2023/12/02 06:22:16;;;;;;;28.70;22.05;;;;;;;-0.94;78.96;97177.44;4971961;28;20034;-74
2023/12/02 06:24:41;;;;;;;28.67;16.33;;;;;;;-1.10;79.13;97181.25;4957230;28;20023;-74
2023/12/02 06:27:07;;;;;;;30.48;21.92;;;;;;;-1.03;78.63;97165.44;4957030;28;20034;-74
2023/12/02 06:29:32;;;;;;;31.23;17.25;;;;;;;-1.18;79.19;97156.81;4973127;28;20027;-74
2023/12/02 06:31:57;;;;;;;28.55;20.65;;;;;;;-1.05;78.57;97170.88;4974457;28;20038;-74
2023/12/02 06:34:23;;;;;;;26.60;21.48;;;;;;;-1.07;78.89;97174.72;4968830;28;20023;-74
2023/12/02 06:36:48;;;;;;;31.15;16.42;;;;;;;-1.21;78.65;97179.16;4973025;28;20035;-74
2023/12/02 06:39:14;;;;;;;25.92;15.65;;;;;;;-1.29;78.77;97181.13;4973112;28;20057;-74
2023/12/02 06:41:41;;;;;;;28.42;16.67;;;;;;;-1.35;79.33;97176.66;4957170;28;20517;-74
2023/12/02 06:44:09;;;;;;;24.63;17.15;;;;;;;-1.20;78.84;97201.09;4939355;28;20034;-74
2023/12/02 06:46:34;;;;;;;24.90;19.20;;;;;;;-1.22;78.73;97192.56;4972718;28;20030;-74
2023/12/02 06:49:00;;;;;;;24.33;19.70;;;;;;;-1.26;78.71;97191.31;4974199;28;20033;-74
2023/12/02 06:51:28;;;;;;;21.95;18.20;;;;;;;-1.22;78.14;97208.41;4962991;28;20039;-74
2023/12/02 06:53:57;;;;;;;23.13;14.65;;;;;;;-1.38;78.42;97216.63;4969565;28;20074;-74
2023/12/02 06:56:23;;;;;;;22.23;17.73;;;;;;;-1.25;78.76;97209.59;4973577;28;20035;-74
2023/12/02 06:58:50;;;;;;;20.58;17.15;;;;;;;-1.32;78.42;97200.00;4940272;28;20490;-74
2023/12/02 07:01:26;;;;;;;19.33;13.73;;;;;;;-1.43;78.13;97201.38;4945724;28;20033;-74
2023/12/02 07:03:53;;;;;;;19.95;16.20;;;;;;;-1.19;77.85;97213.31;4952741;28;20129;-75
2023/12/02 07:06:18;;;;;;;19.52;16.98;;;;;;;-1.24;78.14;97213.88;4956155;28;20372;-74
2023/12/02 07:08:44;;;;;;;19.10;15.65;;;;;;;-1.29;78.21;97212.81;4970270;28;20067;-74
2023/12/02 07:11:09;;;;;;;19.75;16.65;;;;;;;-1.21;77.78;97216.13;4955967;28;20027;-74
2023/12/02 07:13:34;;;;;;;21.27;17.00;;;;;;;-1.38;77.70;97220.88;4970621;28;20098;-74
2023/12/02 07:16:00;;;;;;;20.05;12.32;;;;;;;-1.47;78.46;97221.25;4947806;28;20116;-74
2023/12/02 07:18:25;;;;;;;19.40;15.57;;;;;;;-1.35;77.85;97224.19;4970512;28;20038;-74
2023/12/02 07:20:51;;;;;;;19.08;15.65;;;;;;;-1.37;77.56;97221.72;4971148;28;20034;-74
2023/12/02 07:23:16;;;;;;;19.42;12.00;;;;;;;-1.49;78.33;97239.91;4954653;28;20039;-75
2023/12/02 07:25:41;;;;;;;20.60;12.10;;;;;;;-1.60;78.22;97206.13;4969429;28;20019;-74
2023/12/02 07:28:07;;;;;;;20.15;15.43;;;;;;;-1.27;78.11;97231.94;4971053;28;20514;-74
2023/12/02 07:30:33;;;;;;;18.40;15.60;;;;;;;-1.23;78.15;97223.41;4951514;28;20058;-75
2023/12/02 07:32:58;;;;;;;19.58;13.27;;;;;;;-1.34;78.21;97241.63;4976173;28;20069;-74
2023/12/02 07:35:23;;;;;;;18.77;13.30;;;;;;;-1.30;77.81;97245.50;4933578;28;20058;-74
2023/12/02 07:37:49;;;;;;;18.33;11.82;;;;;;;-1.34;77.89;97246.91;4955959;28;20042;-74
2023/12/02 07:40:14;;;;;;;19.65;16.10;;;;;;;-1.18;78.15;97251.88;4977539;28;20098;-73
2023/12/02 07:42:40;;;;;;;18.23;15.32;;;;;;;-1.17;77.61;97242.97;4972277;28;20510;-74
2023/12/02 07:45:06;;;;;;;17.58;14.82;;;;;;;-1.12;77.72;97256.41;4948687;28;20019;-74
2023/12/02 07:47:31;;;;;;;17.65;12.77;;;;;;;-1.28;78.20;97240.88;4954671;28;20506;-74
2023/12/02 07:49:57;;;;;;;17.02;13.85;;;;;;;-1.24;77.65;97252.69;4939429;28;20059;-74
2023/12/02 07:52:22;;;;;;;16.75;13.95;;;;;;;-1.26;77.87;97254.69;4956357;28;20034;-74
2023/12/02 07:54:48;;;;;;;16.88;14.05;;;;;;;-1.24;77.50;97257.97;4936445;28;20026;-74
2023/12/02 07:57:14;;;;;;;17.58;14.60;;;;;;;-1.07;76.94;97267.19;4963956;28;20035;-74
2023/12/02 07:59:39;;;;;;;16.00;14.10;;;;;;;-1.15;77.15;97251.50;4950407;28;20030;-74
2023/12/02 08:02:05;;;;;;;16.35;13.52;;;;;;;-1.05;77.14;97279.19;4954861;28;20038;-74
2023/12/02 08:04:30;;;;;;;18.45;14.05;;;;;;;-0.97;77.06;97283.53;4953617;28;20113;-74
2023/12/02 08:06:56;;;;;;;16.15;13.90;;;;;;;-1.14;76.78;97268.97;4954925;28;20403;-74
2023/12/02 08:09:21;;;;;;;16.65;12.15;;;;;;;-1.17;76.84;97279.94;4965975;28;20032;-74
2023/12/02 08:11:48;;;;;;;15.75;13.32;;;;;;;-1.06;76.81;97284.69;4971759;28;20121;-74
2023/12/02 08:14:14;;;;;;;18.95;11.95;;;;;;;-1.03;76.75;97292.22;4954166;28;20031;-74
2023/12/02 08:16:39;;;;;;;15.25;12.65;;;;;;;-0.98;77.18;97287.97;4969774;28;20098;-73
2023/12/02 08:19:05;;;;;;;15.32;13.07;;;;;;;-1.07;76.41;97275.13;4967106;28;20368;-74
2023/12/02 08:21:31;;;;;;;17.27;12.98;;;;;;;-1.23;76.35;97264.84;4971681;28;20039;-74
2023/12/02 08:23:56;;;;;;;15.48;12.38;;;;;;;-1.01;75.78;97290.22;4971322;28;20027;-73
2023/12/02 08:26:21;;;;;;;18.25;10.77;;;;;;;-1.27;76.53;97300.59;4964408;28;20446;-74
2023/12/02 08:28:48;;;;;;;14.73;12.32;;;;;;;-1.01;76.61;97301.59;4971458;28;20037;-72
2023/12/02 08:31:14;;;;;;;15.98;9.57;;;;;;;-1.24;76.36;97294.94;4947592;28;20034;-72
2023/12/02 08:33:40;;;;;;;15.05;11.80;;;;;;;-0.93;75.69;97303.25;4971190;28;20391;-73
2023/12/02 08:36:06;;;;;;;15.02;11.95;;;;;;;-0.89;75.14;97304.50;4955097;28;20047;-72
2023/12/02 08:38:31;;;;;;;14.13;11.25;;;;;;;-0.96;75.72;97314.22;4955806;28;20026;-72
2023/12/02 08:40:57;;;;;;;16.20;12.50;;;;;;;-1.00;75.33;97312.97;4973957;28;20039;-72
2023/12/02 08:43:22;;;;;;;17.48;12.05;;;;;;;-0.97;75.46;97328.44;4963585;28;20022;-72
2023/12/02 08:45:47;;;;;;;15.05;12.25;;;;;;;-0.98;75.35;97324.19;4954723;28;20475;-73
2023/12/02 08:48:13;;;;;;;15.25;10.75;;;;;;;-1.02;75.68;97341.41;4954886;28;20038;-74
2023/12/02 08:50:38;;;;;;;13.93;10.93;;;;;;;-1.00;74.97;97334.09;4961720;28;20065;-73
2023/12/02 08:53:03;;;;;;;17.92;13.00;;;;;;;-0.89;74.92;97341.50;4967622;28;20038;-73
2023/12/02 08:55:29;;;;;;;18.25;10.95;;;;;;;-1.06;74.57;97346.28;4970892;28;20491;-73
2023/12/02 08:57:54;;;;;;;24.55;15.38;;;;;;;-1.01;74.82;97332.47;4947652;28;20027;-72
2023/12/02 09:00:19;;;;;;;20.10;14.20;;;;;;;-0.89;75.45;97352.88;4957415;28;20046;-72
2023/12/02 09:02:45;;;;;;;15.30;12.32;;;;;;;-0.91;74.84;97344.31;4954859;28;20170;-72
2023/12/02 09:05:10;;;;;;;15.43;9.40;;;;;;;-0.96;75.21;97356.50;4975747;28;20402;-72
2023/12/02 09:07:36;;;;;;;16.52;9.00;;;;;;;-1.08;75.29;97345.66;4971700;28;20062;-73
2023/12/02 09:10:03;;;;;;;14.73;11.63;;;;;;;-0.68;75.15;97368.66;4972911;28;20041;-73
2023/12/02 09:12:28;;;;;;;14.18;11.68;;;;;;;-0.72;74.72;97370.06;4975844;28;20031;-73
2023/12/02 09:15:08;;;;;;;13.52;11.30;;;;;;;-0.75;74.65;97362.53;4957984;28;20042;-72
2023/12/02 09:17:40;;;;;;;15.80;11.68;;;;;;;-0.65;74.86;97372.75;4942177;28;20049;-72
2023/12/02 09:20:06;;;;;;;12.68;10.88;;;;;;;-0.79;74.38;97358.63;4975779;28;20498;-74
2023/12/02 09:22:46;;;;;;;13.93;9.02;;;;;;;-0.76;74.37;97368.00;4974483;28;20042;-73
2023/12/02 09:25:25;;;;;;;13.07;11.30;;;;;;;-0.74;73.70;97360.69;4964815;28;20034;-73
2023/12/02 09:28:09;;;;;;;12.88;10.70;;;;;;;-0.66;73.70;97373.78;4974584;28;20035;-73
2023/12/02 09:30:36;;;;;;;12.23;10.23;;;;;;;-0.72;74.32;97369.25;4976118;28;20490;-73
2023/12/02 09:33:04;;;;;;;12.88;10.38;;;;;;;-0.70;73.96;97377.78;4968976;28;20022;-73
2023/12/02 09:35:29;;;;;;;12.25;10.05;;;;;;;-0.63;73.62;97381.28;4975552;28;20050;-73
2023/12/02 09:37:56;;;;;;;12.55;10.45;;;;;;;-0.68;73.65;97370.50;4973184;28;20026;-73
2023/12/02 09:40:22;;;;;;;13.73;10.82;;;;;;;-0.67;73.81;97377.41;4978864;28;20482;-74
2023/12/02 09:43:13;;;;;;;14.57;10.75;;;;;;;-0.55;72.70;97381.16;4966644;28;20023;-73
2023/12/02 09:45:48;;;;;;;13.82;11.35;;;;;;;-0.56;73.17;97368.16;4965531;28;20027;-73
2023/12/02 09:48:23;;;;;;;13.05;9.95;;;;;;;-0.48;73.10;97370.63;4958199;28;20042;-74
2023/12/02 09:51:16;;;;;;;12.20;10.30;;;;;;;-0.52;73.81;97378.13;4951608;28;20046;-74
2023/12/02 09:54:06;;;;;;;13.77;8.85;;;;;;;-0.43;73.17;97384.91;4944158;28;20086;-73
2023/12/02 09:56:39;;;;;;;13.63;10.95;;;;;;;-0.27;73.71;97367.88;4974716;28;20035;-73
2023/12/02 09:59:14;;;;;;;11.27;9.65;;;;;;;-0.38;72.55;97381.66;4975020;28;20038;-73
2023/12/02 10:01:55;;;;;;;12.02;9.75;;;;;;;-0.51;73.16;97382.41;4958147;28;20526;-73
2023/12/02 10:04:30;;;;;;;11.48;7.88;;;;;;;-0.80;73.42;97377.34;4964599;28;20045;-74
2023/12/02 10:07:01;;;;;;;12.30;9.52;;;;;;;-0.58;73.52;97386.03;4970266;28;20033;-74
2023/12/02 10:09:30;;;;;;;10.35;9.25;;;;;;;-0.54;73.68;97382.81;4918371;28;20452;-73
2023/12/02 10:11:55;;;;;;;11.43;9.40;;;;;;;-0.58;72.96;97386.81;4969318;28;20031;-72
2023/12/02 10:14:22;;;;;;;10.90;9.43;;;;;;;-0.58;72.74;97392.13;4957427;28;20047;-74
2023/12/02 10:16:50;;;;;;;11.48;10.18;;;;;;;-0.59;72.81;97369.34;4967226;28;20068;-74
2023/12/02 10:19:41;;;;;;;11.30;9.10;;;;;;;-0.48;72.06;97391.75;4965831;28;20066;-73
2023/12/02 10:22:06;;;;;;;11.95;9.95;;;;;;;-0.51;73.23;97371.81;4947820;28;20039;-73
2023/12/02 10:24:50;;;;;;;12.63;10.50;;;;;;;-0.39;72.77;97390.59;4973396;28;20065;-73
2023/12/02 10:27:17;;;;;;;11.82;10.18;;;;;;;-0.36;73.47;97395.50;4963065;28;20034;-74
2023/12/02 10:29:49;;;;;;;13.35;11.32;;;;;;;-0.43;73.12;97400.75;4957031;28;20022;-73
2023/12/02 10:32:30;;;;;;;13.07;10.40;;;;;;;-0.40;73.52;97404.84;4917258;28;20027;-73
2023/12/02 10:35:21;;;;;;;12.27;9.90;;;;;;;-0.46;73.34;97406.44;4970936;28;20035;-73
2023/12/02 10:37:53;;;;;;;10.63;9.55;;;;;;;-0.33;73.04;97406.53;4978222;28;20521;-72
2023/12/02 10:40:20;;;;;;;9.57;8.63;;;;;;;-0.35;73.31;97408.53;4971570;28;20046;-73
2023/12/02 10:43:04;;;;;;;12.50;10.25;;;;;;;-0.26;72.41;97402.09;4963023;28;20027;-73
2023/12/02 10:45:30;;;;;;;12.10;10.52;;;;;;;-0.11;72.78;97404.56;4967164;28;20446;-73
2023/12/02 10:47:56;;;;;;;11.48;10.30;;;;;;;-0.12;72.40;97393.16;4956859;28;20130;-73
2023/12/02 10:50:22;;;;;;;12.48;11.18;;;;;;;-0.02;72.73;97404.22;4956942;28;20498;-73
2023/12/02 10:52:57;;;;;;;11.82;10.05;;;;;;;-0.07;72.45;97401.34;4970326;28;20027;-73
2023/12/02 10:55:24;;;;;;;12.23;10.30;;;;;;;0.10;72.60;97390.41;4965905;28;20039;-72
2023/12/02 10:57:49;;;;;;;11.93;10.63;;;;;;;0.23;71.98;97401.06;4960569;28;20030;-73
2023/12/02 11:00:16;;;;;;;12.38;10.73;;;;;;;0.33;72.03;97401.47;4972749;28;20510;-73
2023/12/02 11:02:52;;;;;;;16.17;13.25;;;;;;;0.50;72.07;97403.56;4940311;28;20360;-73
2023/12/02 11:05:21;;;;;;;;;;;;;;;0.06;71.84;97410.34;4950545;28;20030;-73
2023/12/02 11:08:00;;;;;;;12.63;11.23;;;;;;;0.12;71.85;97409.56;4973172;28;19910;-73
2023/12/02 11:10:43;;;;;;;13.95;12.40;;;;;;;0.23;71.97;97398.41;4948151;28;20035;-73
2023/12/02 11:13:23;;;;;;;13.23;11.60;;;;;;;0.36;72.66;97406.38;4971781;28;20115;-73
2023/12/02 11:16:09;;;;;;;12.93;11.50;;;;;;;0.28;72.95;97403.94;4956178;28;20443;-72
2023/12/02 11:19:01;;;;;;;15.52;13.50;;;;;;;-0.09;73.65;97406.00;4970097;28;20057;-74